createdAt,value
2022-08-22T00:00:24.117Z,15.27
2022-08-22T00:02:41.798Z,18.51
2022-08-22T00:03:01.115Z,18.15
2022-08-22T00:03:15.752Z,15.52
2022-08-22T00:03:16.136Z,15.30
2022-08-22T00:06:12.668Z,15.19
2022-08-22T00:09:05.768Z,15.16
2022-08-22T00:11:54.658Z,15.14
2022-08-22T00:14:42.736Z,15.07
2022-08-22T00:17:40.946Z,15.03
2022-08-22T00:20:30.263Z,15.00
2022-08-22T00:23:23.823Z,14.97
2022-08-22T00:26:16.502Z,14.88
2022-08-22T00:29:04.620Z,14.88
2022-08-22T00:31:52.317Z,14.88
2022-08-22T00:34:41.147Z,14.91
2022-08-22T00:37:29.894Z,14.86
2022-08-22T00:40:31.868Z,14.86
2022-08-22T00:43:44.727Z,14.78
2022-08-22T00:46:56.519Z,14.83
2022-08-22T00:50:06.988Z,14.84
2022-08-22T00:53:08.833Z,14.83
2022-08-22T00:56:10.309Z,14.81
2022-08-22T00:59:23.329Z,14.78
2022-08-22T01:02:21.973Z,14.81
2022-08-22T01:05:43.716Z,14.79
2022-08-22T01:08:47.813Z,14.76
2022-08-22T01:11:48.070Z,14.73
2022-08-22T01:14:46.692Z,14.72
2022-08-22T01:17:55.233Z,14.71
2022-08-22T01:21:24.383Z,14.69
2022-08-22T01:25:01.833Z,14.67
2022-08-22T01:28:24.427Z,14.65
2022-08-22T01:31:46.282Z,14.62
2022-08-22T01:35:10.710Z,14.58
2022-08-22T01:38:23.533Z,14.56
2022-08-22T01:41:34.427Z,14.55
2022-08-22T01:44:39.295Z,14.52
2022-08-22T01:47:27.975Z,14.50
2022-08-22T01:50:23.427Z,14.48
2022-08-22T01:53:11.847Z,14.45
2022-08-22T01:56:02.131Z,14.44
2022-08-22T01:58:54.965Z,14.40
2022-08-22T02:01:54.322Z,14.37
2022-08-22T02:04:53.395Z,14.30
2022-08-22T02:07:47.141Z,14.25
2022-08-22T02:10:48.240Z,14.21
2022-08-22T02:13:55.520Z,14.12
2022-08-22T02:16:42.281Z,14.03
2022-08-22T02:19:37.992Z,13.95
2022-08-22T02:22:34.028Z,13.86
2022-08-22T02:25:25.344Z,13.82
2022-08-22T02:28:13.791Z,13.79
2022-08-22T02:31:06.672Z,13.75
2022-08-22T02:33:54.916Z,13.71
2022-08-22T02:36:47.748Z,13.68
2022-08-22T02:39:36.889Z,13.63
2022-08-22T02:42:28.204Z,13.59
2022-08-22T02:45:25.837Z,13.54
2022-08-22T02:48:21.646Z,13.51
2022-08-22T02:51:18.193Z,13.46
2022-08-22T02:54:14.202Z,13.45
2022-08-22T02:57:02.722Z,13.43
2022-08-22T03:00:32.790Z,13.41
2022-08-22T03:03:21.430Z,13.42
2022-08-22T03:06:09.100Z,13.41
2022-08-22T03:09:06.655Z,13.42
2022-08-22T03:11:59.357Z,13.44
2022-08-22T03:14:48.438Z,13.47
2022-08-22T03:17:38.910Z,13.51
2022-08-22T03:20:41.621Z,13.57
2022-08-22T03:23:33.958Z,13.64
2022-08-22T03:26:25.053Z,13.67
2022-08-22T03:29:17.404Z,13.70
2022-08-22T03:32:12.987Z,13.73
2022-08-22T03:35:01.974Z,13.77
2022-08-22T03:37:46.039Z,13.80
2022-08-22T03:40:35.655Z,13.82
2022-08-22T03:43:39.960Z,13.85
2022-08-22T03:46:52.645Z,13.85
2022-08-22T03:50:01.595Z,13.82
2022-08-22T03:53:15.426Z,13.79
2022-08-22T03:56:41.431Z,13.74
2022-08-22T03:59:47.995Z,13.68
2022-08-22T04:02:58.616Z,13.60
2022-08-22T04:06:03.736Z,13.55
2022-08-22T04:09:29.136Z,13.53
2022-08-22T04:12:31.423Z,13.51
2022-08-22T04:15:46.135Z,13.52
2022-08-22T04:18:53.751Z,13.50
2022-08-22T04:21:59.649Z,13.47
2022-08-22T04:24:53.759Z,13.46
2022-08-22T04:27:42.518Z,13.47
2022-08-22T04:30:31.781Z,13.50
2022-08-22T04:33:20.783Z,13.58
2022-08-22T04:36:13.184Z,13.63
2022-08-22T04:39:03.859Z,13.65
2022-08-22T04:41:51.514Z,13.63
2022-08-22T04:44:43.105Z,13.65
2022-08-22T04:47:34.608Z,13.68
2022-08-22T04:50:23.592Z,13.72
2022-08-22T04:53:18.683Z,13.78
2022-08-22T04:56:07.770Z,13.77
2022-08-22T04:58:58.128Z,13.82
2022-08-22T05:01:46.701Z,13.86
2022-08-22T05:04:33.378Z,13.92
2022-08-22T05:07:20.884Z,14.00
2022-08-22T05:10:11.900Z,14.01
2022-08-22T05:13:00.982Z,14.06
2022-08-22T05:15:48.595Z,14.10
2022-08-22T05:18:37.227Z,14.12
2022-08-22T05:21:24.458Z,14.13
2022-08-22T05:24:15.399Z,14.18
2022-08-22T05:27:06.649Z,14.23
2022-08-22T05:29:56.613Z,14.33
2022-08-22T05:32:49.000Z,14.41
2022-08-22T05:35:36.708Z,14.47
2022-08-22T05:38:27.523Z,14.56
2022-08-22T05:41:19.125Z,14.61
2022-08-22T05:44:03.495Z,14.65
2022-08-22T05:46:51.371Z,14.68
2022-08-22T05:49:39.895Z,14.73
2022-08-22T05:52:33.650Z,14.78
2022-08-22T05:55:26.236Z,14.80
2022-08-22T05:58:19.345Z,14.80
2022-08-22T06:01:13.598Z,14.80
2022-08-22T06:04:05.798Z,14.81
2022-08-22T06:06:58.297Z,14.80
2022-08-22T06:10:06.678Z,14.80
2022-08-22T06:12:57.536Z,14.86
2022-08-22T06:15:48.711Z,14.89
2022-08-22T06:18:33.794Z,14.96
2022-08-22T06:21:24.835Z,15.03
2022-08-22T06:24:14.192Z,15.08
2022-08-22T06:27:06.038Z,15.12
2022-08-22T06:29:53.092Z,15.15
2022-08-22T06:32:58.907Z,15.17
2022-08-22T06:36:05.100Z,15.21
2022-08-22T06:39:07.469Z,15.30
2022-08-22T06:41:53.823Z,15.42
2022-08-22T06:44:39.490Z,15.50
2022-08-22T06:47:25.909Z,15.56
2022-08-22T06:50:15.264Z,15.61
2022-08-22T06:53:02.406Z,15.64
2022-08-22T06:55:50.331Z,15.68
2022-08-22T06:58:39.000Z,15.70
2022-08-22T07:01:24.996Z,15.74
2022-08-22T07:04:11.254Z,15.73
2022-08-22T07:06:57.574Z,15.74
2022-08-22T07:09:42.342Z,15.75
2022-08-22T07:12:32.252Z,15.77
2022-08-22T07:15:22.513Z,15.80
2022-08-22T07:18:09.855Z,15.81
2022-08-22T07:20:55.375Z,15.85
2022-08-22T07:23:44.596Z,15.87
2022-08-22T07:26:33.866Z,15.89
2022-08-22T07:29:27.408Z,15.93
2022-08-22T07:32:14.671Z,16.05
2022-08-22T07:35:09.465Z,16.11
2022-08-22T07:38:02.348Z,16.17
2022-08-22T07:40:53.830Z,16.20
2022-08-22T07:43:42.903Z,16.24
2022-08-22T07:46:32.625Z,16.24
2022-08-22T07:49:21.786Z,16.29
2022-08-22T07:52:08.609Z,16.40
2022-08-22T07:54:57.873Z,16.52
2022-08-22T07:57:44.598Z,16.62
2022-08-22T08:00:28.971Z,16.79
2022-08-22T08:03:13.938Z,16.92
2022-08-22T08:05:57.794Z,17.01
2022-08-22T08:08:44.339Z,17.06
2022-08-22T08:11:31.949Z,17.07
2022-08-22T08:14:17.380Z,16.95
2022-08-22T08:17:04.151Z,16.70
2022-08-22T08:19:50.716Z,16.70
2022-08-22T08:22:35.492Z,16.77
2022-08-22T08:25:22.576Z,16.78
2022-08-22T08:28:23.928Z,16.89
2022-08-22T08:31:14.073Z,16.84
2022-08-22T08:34:03.340Z,16.94
2022-08-22T08:36:52.411Z,16.89
2022-08-22T08:39:39.246Z,16.86
2022-08-22T08:43:10.636Z,16.69
2022-08-22T08:46:33.732Z,16.69
2022-08-22T08:49:28.283Z,16.72
2022-08-22T08:52:32.187Z,16.61
2022-08-22T08:55:28.070Z,16.70
2022-08-22T08:58:43.378Z,16.67
2022-08-22T09:01:47.666Z,16.69
2022-08-22T09:05:07.103Z,16.65
2022-08-22T09:08:03.923Z,16.77
2022-08-22T09:11:28.530Z,16.91
2022-08-22T09:14:36.896Z,17.04
2022-08-22T09:17:46.003Z,17.09
2022-08-22T09:20:48.188Z,17.11
2022-08-22T09:23:53.965Z,17.20
2022-08-22T09:26:48.096Z,17.23
2022-08-22T09:29:51.516Z,17.29
2022-08-22T09:32:47.049Z,17.41
2022-08-22T09:35:42.146Z,17.50
2022-08-22T09:38:34.635Z,17.58
2022-08-22T09:41:31.955Z,17.69
2022-08-22T09:44:29.431Z,17.74
2022-08-22T09:47:24.313Z,17.81
2022-08-22T09:50:17.091Z,17.82
2022-08-22T09:53:10.289Z,17.60
2022-08-22T09:56:00.970Z,17.55
2022-08-22T09:59:06.650Z,17.51
2022-08-22T10:01:59.060Z,17.43
2022-08-22T10:04:53.984Z,17.39
2022-08-22T10:07:53.954Z,17.38
2022-08-22T10:11:02.063Z,17.41
2022-08-22T10:14:00.629Z,17.42
2022-08-22T10:17:00.657Z,17.37
2022-08-22T10:19:49.379Z,17.33
2022-08-22T10:22:44.477Z,17.14
2022-08-22T10:25:35.761Z,17.16
2022-08-22T10:28:28.801Z,17.21
2022-08-22T10:31:23.692Z,17.22
2022-08-22T10:34:12.873Z,17.15
2022-08-22T10:37:04.381Z,17.12
2022-08-22T10:40:02.580Z,17.13
2022-08-22T10:42:53.539Z,17.24
2022-08-22T10:45:40.490Z,17.36
2022-08-22T10:48:46.507Z,17.36
2022-08-22T10:51:44.663Z,17.35
2022-08-22T10:54:51.395Z,17.36
2022-08-22T10:57:49.416Z,17.43
2022-08-22T11:00:49.851Z,17.58
2022-08-22T11:03:43.621Z,17.74
2022-08-22T11:06:34.009Z,17.83
2022-08-22T11:09:32.139Z,17.91
2022-08-22T11:12:23.511Z,18.02
2022-08-22T11:15:28.339Z,18.05
2022-08-22T11:18:23.593Z,18.09
2022-08-22T11:21:10.954Z,18.02
2022-08-22T11:24:04.858Z,17.97
2022-08-22T11:27:00.127Z,17.87
2022-08-22T11:29:52.418Z,17.67
2022-08-22T11:32:39.907Z,17.53
2022-08-22T11:35:26.018Z,17.41
2022-08-22T11:38:21.290Z,17.28
2022-08-22T11:41:06.956Z,17.05
2022-08-22T11:44:00.538Z,17.05
2022-08-22T11:46:49.191Z,17.06
2022-08-22T11:49:44.218Z,16.96
2022-08-22T11:52:51.672Z,16.86
2022-08-22T11:55:39.333Z,16.81
2022-08-22T11:58:28.967Z,16.76
2022-08-22T12:01:18.628Z,16.60
2022-08-22T12:04:10.183Z,16.66
2022-08-22T12:07:04.001Z,16.64
2022-08-22T12:09:51.980Z,16.69
2022-08-22T12:12:47.465Z,16.73
2022-08-22T12:15:40.477Z,16.74
2022-08-22T12:18:43.206Z,16.69
2022-08-22T12:22:03.183Z,16.66
2022-08-22T12:25:04.373Z,16.63
2022-08-22T12:27:56.642Z,16.58
2022-08-22T12:30:46.871Z,16.61
2022-08-22T12:33:48.276Z,16.58
2022-08-22T12:37:05.853Z,16.46
2022-08-22T12:40:09.794Z,16.46
2022-08-22T12:43:13.269Z,16.35
2022-08-22T12:46:15.096Z,16.33
2022-08-22T12:49:23.251Z,16.37
2022-08-22T12:52:25.100Z,16.40
2022-08-22T12:55:25.566Z,16.44
2022-08-22T12:58:17.732Z,16.33
2022-08-22T13:01:06.310Z,16.26
2022-08-22T13:03:54.681Z,16.19
2022-08-22T13:06:57.698Z,16.25
2022-08-22T13:09:47.616Z,16.20
2022-08-22T13:12:37.710Z,16.19
2022-08-22T13:15:31.181Z,16.17
2022-08-22T13:18:30.560Z,16.17
2022-08-22T13:21:17.759Z,16.12
2022-08-22T13:24:10.489Z,15.99
2022-08-22T13:27:01.093Z,15.72
2022-08-22T13:29:54.722Z,15.79
2022-08-22T13:32:44.246Z,15.92
2022-08-22T13:35:35.312Z,15.98
2022-08-22T13:38:26.127Z,16.01
2022-08-22T13:41:11.647Z,16.00
2022-08-22T13:44:11.635Z,16.00
2022-08-22T13:47:13.651Z,15.99
2022-08-22T13:50:07.269Z,16.07
2022-08-22T13:52:56.864Z,16.18
2022-08-22T13:55:49.152Z,16.24
2022-08-22T13:58:42.242Z,16.37
2022-08-22T14:01:38.791Z,16.43
2022-08-22T14:04:33.349Z,16.56
2022-08-22T14:07:28.232Z,16.60
2022-08-22T14:10:19.726Z,16.71
2022-08-22T14:13:39.728Z,16.79
2022-08-22T14:16:27.265Z,16.55
2022-08-22T14:19:23.289Z,16.58
2022-08-22T14:22:14.719Z,16.59
2022-08-22T14:25:01.524Z,16.45
2022-08-22T14:27:57.988Z,16.42
2022-08-22T14:31:01.911Z,16.45
2022-08-22T14:33:49.871Z,16.45
2022-08-22T14:36:41.281Z,16.47
2022-08-22T14:39:34.895Z,16.58
2022-08-22T14:42:22.930Z,16.59
2022-08-22T14:45:11.830Z,16.62
2022-08-22T14:48:29.711Z,16.66
2022-08-22T14:51:10.054Z,16.68
2022-08-22T14:53:53.986Z,16.54
2022-08-22T14:56:38.918Z,16.48
2022-08-22T14:59:33.715Z,16.48
2022-08-22T15:02:26.603Z,16.42
2022-08-22T15:05:19.785Z,16.45
2022-08-22T15:08:02.936Z,16.49
2022-08-22T15:10:49.020Z,16.45
2022-08-22T15:13:32.207Z,16.28
2022-08-22T15:16:20.044Z,16.25
2022-08-22T15:19:22.922Z,16.33
2022-08-22T15:22:15.739Z,16.34
2022-08-22T15:25:04.183Z,16.30
2022-08-22T15:27:53.838Z,16.32
2022-08-22T15:30:44.082Z,16.40
2022-08-22T15:33:32.251Z,16.35
2022-08-22T15:36:17.468Z,16.38
2022-08-22T15:39:30.312Z,16.43
2022-08-22T15:42:26.950Z,16.37
2022-08-22T15:45:21.109Z,16.30
2022-08-22T15:48:10.071Z,16.24
2022-08-22T15:51:00.114Z,16.15
2022-08-22T15:54:00.804Z,16.18
2022-08-22T15:57:16.343Z,16.15
2022-08-22T16:00:03.127Z,16.12
2022-08-22T16:03:01.529Z,16.08
2022-08-22T16:05:55.238Z,16.08
2022-08-22T16:08:50.382Z,16.06
2022-08-22T16:11:37.860Z,16.02
2022-08-22T16:14:25.662Z,16.04
2022-08-22T16:17:41.883Z,16.08
2022-08-22T16:20:51.858Z,16.08
2022-08-22T16:24:17.581Z,16.05
2022-08-22T16:27:18.885Z,16.04
2022-08-22T16:30:16.639Z,16.06
2022-08-22T16:33:00.666Z,16.14
2022-08-22T16:36:05.155Z,16.17
2022-08-22T16:38:51.569Z,16.28
2022-08-22T16:41:40.290Z,16.30
2022-08-22T16:44:51.219Z,16.32
2022-08-22T16:47:43.054Z,16.34
2022-08-22T16:50:40.874Z,16.32
2022-08-22T16:54:01.549Z,16.31
2022-08-22T16:57:09.145Z,16.24
2022-08-22T17:00:07.485Z,16.20
2022-08-22T17:03:08.751Z,16.13
2022-08-22T17:06:04.719Z,16.05
2022-08-22T17:08:56.596Z,15.98
2022-08-22T17:11:52.968Z,15.93
2022-08-22T17:14:47.423Z,15.85
2022-08-22T17:17:37.675Z,15.75
2022-08-22T17:20:33.874Z,15.72
2022-08-22T17:23:28.769Z,15.70
2022-08-22T17:26:21.548Z,15.67
2022-08-22T17:29:24.907Z,15.61
2022-08-22T17:32:18.575Z,15.63
2022-08-22T17:35:14.663Z,15.64
2022-08-22T17:38:21.121Z,15.61
2022-08-22T17:41:13.236Z,15.57
2022-08-22T17:44:08.818Z,15.51
2022-08-22T17:46:56.327Z,15.49
2022-08-22T17:49:52.307Z,15.48
2022-08-22T17:52:42.630Z,15.50
2022-08-22T17:55:32.580Z,15.52
2022-08-22T17:58:33.605Z,15.52
2022-08-22T18:01:40.895Z,15.45
2022-08-22T18:04:32.136Z,15.37
2022-08-22T18:07:50.261Z,15.34
2022-08-22T18:10:43.183Z,15.32
2022-08-22T18:13:37.999Z,15.33
2022-08-22T18:16:27.106Z,15.35
2022-08-22T18:19:20.348Z,15.37
2022-08-22T18:22:09.502Z,15.39
2022-08-22T18:25:00.840Z,15.41
2022-08-22T18:27:54.727Z,15.42
2022-08-22T18:30:51.871Z,15.43
2022-08-22T18:33:41.079Z,15.43
2022-08-22T18:36:31.322Z,15.42
2022-08-22T18:39:22.574Z,15.42
2022-08-22T18:42:11.592Z,15.36
2022-08-22T18:44:56.407Z,15.33
2022-08-22T18:47:39.266Z,15.31
2022-08-22T18:50:32.698Z,15.32
2022-08-22T18:53:38.010Z,15.33
2022-08-22T18:56:50.236Z,15.34
2022-08-22T18:59:46.004Z,15.33
2022-08-22T19:02:57.731Z,15.36
2022-08-22T19:06:09.558Z,15.36
2022-08-22T19:09:16.120Z,15.25
2022-08-22T19:12:06.582Z,15.17
2022-08-22T19:15:07.357Z,15.15
2022-08-22T19:18:23.907Z,15.10
2022-08-22T19:21:40.264Z,15.08
2022-08-22T19:25:03.276Z,15.07
2022-08-22T19:28:08.661Z,15.02
2022-08-22T19:30:52.814Z,15.03
2022-08-22T19:33:42.239Z,15.03
2022-08-22T19:36:31.882Z,15.04
2022-08-22T19:39:44.744Z,15.01
2022-08-22T19:42:37.572Z,15.00
2022-08-22T19:45:25.757Z,14.99
2022-08-22T19:48:14.529Z,14.96
2022-08-22T19:51:12.771Z,14.93
2022-08-22T19:54:16.435Z,14.93
2022-08-22T19:57:10.936Z,14.92
2022-08-22T20:00:03.181Z,14.91
2022-08-22T20:03:01.971Z,14.91
2022-08-22T20:05:57.058Z,14.91
2022-08-22T20:08:51.337Z,14.87
2022-08-22T20:11:45.415Z,14.86
2022-08-22T20:14:31.142Z,14.84
2022-08-22T20:17:35.753Z,14.83
2022-08-22T20:20:56.876Z,14.83
2022-08-22T20:23:40.196Z,14.86
2022-08-22T20:26:25.270Z,14.89
2022-08-22T20:29:08.436Z,14.92
2022-08-22T20:31:56.768Z,14.92
2022-08-22T20:34:43.298Z,14.93
2022-08-22T20:38:02.822Z,14.96
2022-08-22T20:40:56.959Z,14.97
2022-08-22T20:43:48.008Z,14.99
2022-08-22T20:46:44.871Z,14.98
2022-08-22T20:49:32.522Z,14.98
2022-08-22T20:52:27.301Z,15.02
2022-08-22T20:55:17.496Z,15.02
2022-08-22T20:58:03.530Z,15.02
2022-08-22T21:00:52.330Z,15.01
2022-08-22T21:03:41.284Z,15.00
2022-08-22T21:06:32.394Z,14.97
2022-08-22T21:09:38.853Z,14.92
2022-08-22T21:12:22.312Z,14.92
2022-08-22T21:15:06.203Z,14.91
2022-08-22T21:17:51.647Z,14.92
2022-08-22T21:20:37.628Z,14.91
2022-08-22T21:23:21.249Z,14.87
2022-08-22T21:26:08.043Z,14.89
2022-08-22T21:29:00.441Z,14.88
2022-08-22T21:31:47.755Z,14.87
2022-08-22T21:34:35.691Z,14.85
2022-08-22T21:37:26.185Z,14.89
2022-08-22T21:40:16.980Z,14.85
2022-08-22T21:43:03.823Z,14.85
2022-08-22T21:45:47.101Z,14.83
2022-08-22T21:48:43.820Z,14.87
2022-08-22T21:51:43.867Z,14.89
2022-08-22T21:54:40.695Z,14.91
2022-08-22T21:57:35.977Z,14.91
2022-08-22T22:00:41.859Z,14.92
2022-08-22T22:03:37.264Z,14.93
2022-08-22T22:06:20.454Z,14.88
2022-08-22T22:09:05.096Z,14.92
2022-08-22T22:11:48.221Z,14.89
2022-08-22T22:14:31.302Z,14.87
2022-08-22T22:17:14.399Z,14.87
2022-08-22T22:19:57.366Z,14.87
2022-08-22T22:22:46.007Z,14.87
2022-08-22T22:25:38.937Z,14.86
2022-08-22T22:28:29.319Z,14.83
2022-08-22T22:31:12.335Z,14.74
2022-08-22T22:33:55.496Z,14.69
2022-08-22T22:36:38.779Z,14.65
2022-08-22T22:39:21.873Z,14.63
2022-08-22T22:42:07.184Z,14.58
2022-08-22T22:44:50.064Z,14.53
2022-08-22T22:47:34.830Z,14.50
2022-08-22T22:50:17.745Z,14.44
2022-08-22T22:53:00.815Z,14.43
2022-08-22T22:55:43.904Z,14.42
2022-08-22T22:58:28.690Z,14.42
2022-08-22T23:01:12.331Z,14.41
2022-08-22T23:03:57.446Z,14.35
2022-08-22T23:06:40.521Z,14.33
2022-08-22T23:09:37.944Z,14.34
2022-08-22T23:12:22.532Z,14.32
2022-08-22T23:15:08.070Z,14.37
2022-08-22T23:17:51.186Z,14.39
2022-08-22T23:20:34.271Z,14.41
2022-08-22T23:23:17.336Z,14.47
2022-08-22T23:26:00.572Z,14.48
2022-08-22T23:28:43.895Z,14.52
2022-08-22T23:31:31.982Z,14.56
2022-08-22T23:34:17.157Z,14.60
2022-08-22T23:37:02.394Z,14.65
2022-08-22T23:39:50.161Z,14.70
2022-08-22T23:42:33.315Z,14.73
2022-08-22T23:45:16.403Z,14.76
2022-08-22T23:48:01.010Z,14.80
2022-08-22T23:50:44.080Z,14.82
2022-08-22T23:53:28.583Z,14.83
2022-08-22T23:56:19.442Z,14.84
2022-08-22T23:59:05.926Z,14.82
